createdAt,value
2023-05-02T00:02:20.051Z,100759.50
2023-05-02T00:04:47.251Z,100750.63
2023-05-02T00:07:14.432Z,100755.97
2023-05-02T00:09:41.928Z,100752.44
2023-05-02T00:12:09.108Z,100755.97
2023-05-02T00:14:36.281Z,100750.50
2023-05-02T00:17:03.589Z,100752.31
2023-05-02T00:19:30.780Z,100755.97
2023-05-02T00:21:58.011Z,100753.19
2023-05-02T00:24:25.203Z,100745.13
2023-05-02T00:26:52.387Z,100747.09
2023-05-02T00:29:19.606Z,100755.00
2023-05-02T00:31:46.754Z,100755.00
2023-05-02T00:34:13.952Z,100743.41
2023-05-02T00:36:41.340Z,100753.19
2023-05-02T00:39:08.515Z,100747.94
2023-05-02T00:41:35.674Z,100751.47
2023-05-02T00:44:02.876Z,100752.44
2023-05-02T00:46:30.536Z,100735.34
2023-05-02T00:48:57.872Z,100747.09
2023-05-02T00:51:25.076Z,100750.63
2023-05-02T00:53:52.463Z,100744.25
2023-05-02T00:56:19.657Z,100747.94
2023-05-02T00:58:47.379Z,100745.25
2023-05-02T01:01:30.271Z,100745.41
2023-05-02T01:04:24.056Z,100750.63
2023-05-02T01:07:17.765Z,100756.97
2023-05-02T01:10:02.531Z,100750.75
2023-05-02T01:12:42.855Z,100756.13
2023-05-02T01:15:12.536Z,100747.94
2023-05-02T01:17:39.987Z,100751.59
2023-05-02T01:20:11.472Z,100760.50
2023-05-02T01:22:42.380Z,100758.81
2023-05-02T01:25:30.890Z,100762.34
2023-05-02T01:28:35.038Z,100763.19
2023-05-02T01:31:04.499Z,100766.00
2023-05-02T01:33:32.539Z,100766.88
2023-05-02T01:36:01.659Z,100777.59
2023-05-02T01:38:29.696Z,100775.88
2023-05-02T01:40:58.310Z,100772.22
2023-05-02T01:43:26.820Z,100775.88
2023-05-02T01:45:55.121Z,100781.25
2023-05-02T01:48:22.852Z,100777.59
2023-05-02T01:50:51.269Z,100779.56
2023-05-02T01:53:18.728Z,100791.13
2023-05-02T01:55:46.629Z,100792.97
2023-05-02T01:58:14.957Z,100792.97
2023-05-02T02:00:45.101Z,100801.03
2023-05-02T02:03:13.246Z,100801.88
2023-05-02T02:05:40.924Z,100801.03
2023-05-02T02:08:08.917Z,100806.38
2023-05-02T02:10:45.876Z,100799.34
2023-05-02T02:13:24.935Z,100803.81
2023-05-02T02:15:57.732Z,100802.97
2023-05-02T02:18:26.530Z,100811.88
2023-05-02T02:20:57.423Z,100808.34
2023-05-02T02:23:27.241Z,100813.72
2023-05-02T02:25:55.644Z,100813.72
2023-05-02T02:28:23.070Z,100815.44
2023-05-02T02:30:50.312Z,100826.16
2023-05-02T02:33:17.883Z,100822.59
2023-05-02T02:35:50.552Z,100827.13
2023-05-02T02:38:31.746Z,100832.50
2023-05-02T02:41:27.672Z,100844.06
2023-05-02T02:44:16.392Z,100844.06
2023-05-02T02:47:06.463Z,100855.81
2023-05-02T02:49:48.181Z,100867.38
2023-05-02T02:52:30.229Z,100871.91
2023-05-02T02:54:58.727Z,100876.44
2023-05-02T02:57:33.574Z,100875.44
2023-05-02T03:00:22.502Z,100891.53
2023-05-02T03:02:49.716Z,100893.25
2023-05-02T03:05:17.512Z,100896.06
2023-05-02T03:07:44.774Z,100893.53
2023-05-02T03:10:12.233Z,100890.84
2023-05-02T03:12:42.081Z,100898.88
2023-05-02T03:15:48.468Z,100896.19
2023-05-02T03:18:16.452Z,100897.06
2023-05-02T03:20:43.778Z,100895.34
2023-05-02T03:23:11.006Z,100902.53
2023-05-02T03:25:39.063Z,100899.84
2023-05-02T03:28:06.299Z,100894.47
2023-05-02T03:30:33.494Z,100907.91
2023-05-02T03:33:01.708Z,100913.25
2023-05-02T03:35:28.978Z,100915.09
2023-05-02T03:37:56.168Z,100921.31
2023-05-02T03:40:23.446Z,100930.34
2023-05-02T03:42:50.619Z,100924.13
2023-05-02T03:45:17.920Z,100939.25
2023-05-02T03:47:45.315Z,100935.88
2023-05-02T03:50:12.534Z,100940.25
2023-05-02T03:52:39.767Z,100937.56
2023-05-02T03:55:08.121Z,100944.75
2023-05-02T03:57:35.361Z,100942.94
2023-05-02T04:00:02.893Z,100950.13
2023-05-02T04:02:30.750Z,100954.50
2023-05-02T04:04:58.086Z,100950.97
2023-05-02T04:07:25.918Z,100950.13
2023-05-02T04:09:53.127Z,100950.13
2023-05-02T04:12:23.538Z,100950.97
2023-05-02T04:14:50.761Z,100954.66
2023-05-02T04:17:18.268Z,100962.56
2023-05-02T04:19:45.759Z,100966.09
2023-05-02T04:22:12.954Z,100969.75
2023-05-02T04:24:40.141Z,100974.28
2023-05-02T04:27:07.853Z,100975.25
2023-05-02T04:29:35.043Z,100986.84
2023-05-02T04:32:02.533Z,100978.81
2023-05-02T04:34:30.328Z,100988.53
2023-05-02T04:37:02.325Z,100991.34
2023-05-02T04:39:29.568Z,100997.59
2023-05-02T04:41:56.865Z,100988.66
2023-05-02T04:44:24.053Z,100996.72
2023-05-02T04:46:51.417Z,101003.81
2023-05-02T04:49:18.728Z,101012.69
2023-05-02T04:51:46.202Z,101001.22
2023-05-02T04:54:13.937Z,101006.50
2023-05-02T04:56:41.177Z,101019.06
2023-05-02T04:59:08.342Z,101023.53
2023-05-02T05:01:35.620Z,101034.28
2023-05-02T05:04:03.660Z,101035.25
2023-05-02T05:06:32.020Z,101038.69
2023-05-02T05:08:59.394Z,101045.00
2023-05-02T05:11:26.861Z,101044.06
2023-05-02T05:13:54.074Z,101038.69
2023-05-02T05:16:21.555Z,101045.75
2023-05-02T05:18:49.497Z,101053.81
2023-05-02T05:21:18.992Z,101053.81
2023-05-02T05:23:47.551Z,101059.19
2023-05-02T05:26:16.020Z,101066.25
2023-05-02T05:28:43.966Z,101065.41
2023-05-02T05:31:18.125Z,101071.59
2023-05-02T05:33:47.303Z,101071.59
2023-05-02T05:36:15.344Z,101076.97
2023-05-02T05:38:42.754Z,101081.50
2023-05-02T05:41:16.215Z,101083.09
2023-05-02T05:43:43.511Z,101085.91
2023-05-02T05:46:10.793Z,101090.53
2023-05-02T05:48:38.043Z,101097.00
2023-05-02T05:51:05.804Z,101096.38
2023-05-02T05:53:33.444Z,101095.53
2023-05-02T05:56:07.923Z,101099.22
2023-05-02T05:58:35.170Z,101111.75
2023-05-02T06:01:02.552Z,101116.75
2023-05-02T06:03:30.081Z,101126.41
2023-05-02T06:05:57.427Z,101118.22
2023-05-02T06:08:24.600Z,101125.78
2023-05-02T06:10:51.778Z,101133.09
2023-05-02T06:13:18.954Z,101138.47
2023-05-02T06:15:46.266Z,101141.16
2023-05-02T06:18:13.911Z,101144.81
2023-05-02T06:20:41.262Z,101148.59
2023-05-02T06:23:08.662Z,101160.94
2023-05-02T06:25:38.333Z,101162.97
2023-05-02T06:28:06.054Z,101181.13
2023-05-02T06:30:33.246Z,101176.84
2023-05-02T06:33:00.728Z,101182.34
2023-05-02T06:35:27.958Z,101185.28
2023-05-02T06:37:55.296Z,101196.13
2023-05-02T06:40:22.612Z,101201.00
2023-05-02T06:42:49.785Z,101205.81
2023-05-02T06:45:17.014Z,101208.09
2023-05-02T06:47:44.188Z,101209.84
2023-05-02T06:50:11.778Z,101220.44
2023-05-02T06:52:39.039Z,101227.50
2023-05-02T06:55:09.699Z,101233.88
2023-05-02T18:58:01.818Z,101895.19
2023-05-02T19:00:31.514Z,101898.41
2023-05-02T19:02:59.056Z,101898.41
2023-05-02T19:05:27.507Z,101901.09
2023-05-02T19:07:54.785Z,101904.78
2023-05-02T19:10:22.032Z,101911.97
2023-05-02T19:12:52.170Z,101912.81
2023-05-02T19:15:19.383Z,101913.81
2023-05-02T19:17:46.573Z,101916.47
2023-05-02T19:20:14.034Z,101926.25
2023-05-02T19:22:46.050Z,101933.25
2023-05-02T19:25:14.299Z,101937.75
2023-05-02T19:27:42.276Z,101934.19
2023-05-02T19:30:10.140Z,101933.25
2023-05-02T19:32:39.677Z,101938.09
2023-05-02T19:35:08.871Z,101937.69
2023-05-02T19:37:36.666Z,101938.22
2023-05-02T19:40:05.126Z,101948.78
2023-05-02T19:42:32.331Z,101947.03
2023-05-02T19:44:59.910Z,101948.44
2023-05-02T19:47:27.531Z,101952.97
2023-05-02T19:49:54.912Z,101964.47
2023-05-02T19:52:22.417Z,101959.84
2023-05-02T19:54:51.396Z,101965.97
2023-05-02T19:57:18.550Z,101971.88
2023-05-02T19:59:46.123Z,101968.75
2023-05-02T20:02:13.415Z,101974.00
2023-05-02T20:04:41.238Z,101970.94
2023-05-02T20:07:08.500Z,101976.84
2023-05-02T20:09:35.994Z,101976.94
2023-05-02T20:12:03.607Z,101972.47
2023-05-02T20:14:31.810Z,101985.38
2023-05-02T20:17:01.715Z,101981.44
2023-05-02T20:19:32.274Z,101991.69
2023-05-02T20:21:59.609Z,101983.22
2023-05-02T20:24:27.153Z,101992.63
2023-05-02T20:26:54.386Z,102001.50
2023-05-02T20:29:21.696Z,102001.50
2023-05-02T20:31:48.972Z,101999.31
2023-05-02T20:34:16.369Z,102006.50
2023-05-02T20:36:43.718Z,102002.28
2023-05-02T20:39:12.215Z,101998.78
2023-05-02T20:41:40.089Z,102007.69
2023-05-02T20:44:07.407Z,102008.94
2023-05-02T20:46:37.117Z,102026.44
2023-05-02T20:49:05.688Z,102008.44
2023-05-02T20:51:33.063Z,102012.81
2023-05-02T20:54:00.678Z,102019.75
2023-05-02T20:56:27.948Z,102020.28
2023-05-02T20:58:55.686Z,102021.06
2023-05-02T21:01:23.055Z,102018.38
2023-05-02T21:03:50.416Z,102026.22
2023-05-02T21:06:20.064Z,102017.00
2023-05-02T21:08:47.369Z,102028.53
2023-05-02T21:11:15.438Z,102022.06
2023-05-02T21:13:43.941Z,102025.72
2023-05-02T21:16:18.541Z,102024.56
2023-05-02T21:18:46.902Z,102032.72
2023-05-02T21:21:14.366Z,102030.03
2023-05-02T21:23:41.529Z,102035.28
2023-05-02T21:26:08.888Z,102027.34
2023-05-02T21:28:37.934Z,102042.28
2023-05-02T21:31:06.111Z,102035.41
2023-05-02T21:33:33.420Z,102037.03
2023-05-02T21:36:01.370Z,102040.78
2023-05-02T21:38:28.958Z,102045.28
2023-05-02T21:40:56.416Z,102044.31
2023-05-02T21:43:23.909Z,102041.84
2023-05-02T21:45:51.207Z,102043.53
2023-05-02T21:48:18.370Z,102038.28
2023-05-02T21:50:45.935Z,102045.28
2023-05-02T21:53:13.218Z,102039.16
2023-05-02T21:55:40.982Z,102042.03
2023-05-02T21:58:09.275Z,102038.38
2023-05-02T22:00:40.718Z,102043.84
2023-05-02T22:03:11.487Z,102039.25
2023-05-02T22:05:42.413Z,102044.44
2023-05-02T22:08:11.129Z,102041.06
2023-05-02T22:10:39.601Z,102048.25
2023-05-02T22:13:09.992Z,102044.72
2023-05-02T22:15:37.745Z,102050.19
2023-05-02T22:18:06.794Z,102050.19
2023-05-02T22:20:34.200Z,102056.63
2023-05-02T22:23:01.422Z,102063.81
2023-05-02T22:25:28.930Z,102053.63
2023-05-02T22:27:56.213Z,102064.56
2023-05-02T22:30:23.757Z,102064.56
2023-05-02T22:32:51.242Z,102070.91
2023-05-02T22:35:18.581Z,102071.75
2023-05-02T22:37:45.794Z,102067.34
2023-05-02T22:40:13.706Z,102070.25
2023-05-02T22:42:41.051Z,102075.59
2023-05-02T22:45:09.447Z,102072.06
2023-05-02T22:47:37.258Z,102066.59
2023-05-02T22:50:13.137Z,102076.56
2023-05-02T22:52:42.972Z,102076.47
2023-05-02T22:55:10.530Z,102080.19
2023-05-02T22:57:38.121Z,102083.75
2023-05-02T23:00:07.321Z,102084.72
2023-05-02T23:02:34.654Z,102086.63
2023-05-02T23:05:02.426Z,102088.38
2023-05-02T23:07:29.659Z,102090.09
2023-05-02T23:09:56.834Z,102089.09
2023-05-02T23:12:24.033Z,102091.78
2023-05-02T23:14:51.229Z,102084.16
2023-05-02T23:17:18.402Z,102094.13
2023-05-02T23:19:45.868Z,102093.16
2023-05-02T23:22:13.022Z,102087.69
2023-05-02T23:24:40.282Z,102099.38
2023-05-02T23:27:07.740Z,102089.53
2023-05-02T23:29:35.131Z,102094.97
2023-05-02T23:32:02.411Z,102102.94
2023-05-02T23:34:31.282Z,102099.50
2023-05-02T23:36:58.498Z,102098.72
2023-05-02T23:39:26.553Z,102099.50
2023-05-02T23:41:53.722Z,102098.63
2023-05-02T23:44:20.973Z,102093.34
2023-05-02T23:46:48.173Z,102097.97
2023-05-02T23:49:15.429Z,102096.03
2023-05-02T23:51:42.694Z,102093.53
2023-05-02T23:54:09.846Z,102094.31
2023-05-02T23:56:37.155Z,102095.38
2023-05-02T23:59:04.531Z,102095.38
